This is the latest recevied weather packets stored in our database for station/object MB7UKB-10. If no packets are shown the sender has not sent any weather packets the latest 10 day(s).
| Time | Temp. | Humidity | Pressure | Rain* | Wind** | Luminosity | Snow |
|---|---|---|---|---|---|---|---|
| 1787849126 | 23.33° C | 53% | 1007.2 hPa | 0 mm | - | - | - |
| 1787847326 | 25° C | 52% | 1006.8 hPa | 0 mm | - | - | - |
| 1787845527 | 24.44° C | 59% | 1007.3 hPa | 0 mm | - | - | - |
| 1787843726 | 26.11° C | 55% | 1007.1 hPa | 0 mm | - | - | - |
| 1787840126 | 25.56° C | 59% | 1007.4 hPa | 0 mm | - | - | - |
| 1787838326 | 25° C | 66% | 1007.4 hPa | 0 mm | - | - | - |
| 1787836526 | 23.89° C | 71% | 1007.4 hPa | 0 mm | - | - | - |
| 1787832926 | 23.33° C | 74% | 1007.6 hPa | 0 mm | - | - | - |
| 1787831126 | 22.22° C | 79% | 1007.8 hPa | 0 mm | - | - | - |
| 1787829327 | 21.67° C | 81% | 1008.1 hPa | 0 mm | - | - | - |
| 1787827527 | 21.67° C | 81% | 1008.2 hPa | 0 mm | - | - | - |
| 1787823927 | 20° C | 89% | 1008 hPa | 0 mm | - | - | - |
| 1787820328 | 18.89° C | 90% | 1008 hPa | 0.25 mm | - | - | - |
| 1787818527 | 18.33° C | 92% | 1007.9 hPa | 1.02 mm | - | - | - |
| 1787816727 | 18.33° C | 91% | 1008.3 hPa | 2.29 mm | - | - | - |
| 1787814927 | 18.33° C | 93% | 1008.2 hPa | 2.03 mm | - | - | - |
| 1787811327 | 18.33° C | 92% | 1007.8 hPa | 0.76 mm | - | - | - |
| 1787809526 | 18.89° C | 91% | 1008.6 hPa | 0.51 mm | - | - | - |
| 1787807726 | 18.89° C | 90% | 1008.3 hPa | 0.51 mm | - | - | - |
| 1787805926 | 18.89° C | 89% | 1008.4 hPa | 0.76 mm | - | - | - |
| 1787804126 | 18.89° C | 87% | 1008.2 hPa | 0.76 mm | - | - | - |
| 1787800526 | 18.89° C | 84% | 1008.3 hPa | 0 mm | - | - | - |
| 1787798727 | 18.89° C | 85% | 1008.6 hPa | 0 mm | - | - | - |
| 1787796927 | 18.89° C | 85% | 1008.9 hPa | 0 mm | - | - | - |
| 1787795127 | 18.89° C | 85% | 1009.6 hPa | 0 mm | - | - | - |
* Rain latest hour (hover to see other rain measurements)
** Current wind speed in m/s (hover to see current wind gust speed)